Time;durP1;ratioP1;P1;durP2;ratioP2;P2;SDS_P1;SDS_P2;PMS_P1;PMS_P2;Temp;Humidity;BMP_temperature;BMP_pressure;BME280_temperature;BME280_humidity;BME280_pressure;Samples;Min_cycle;Max_cycle;Signal;HPM_P1;HPM_P2
2022/10/13 00:00:32;;;;;;;25.80;16.27;;;9.10;99.90;;;;;;4696145;28;10001594;-72
2022/10/13 00:03:02;;;;;;;23.50;15.40;;;9.10;99.90;;;;;;5070227;28;20050;-73
2022/10/13 00:05:29;;;;;;;25.05;15.32;;;9.10;99.90;;;;;;5064638;28;20549;-72
2022/10/13 00:07:54;;;;;;;23.60;15.32;;;9.10;99.90;;;;;;5065815;28;20044;-73
2022/10/13 00:10:21;;;;;;;20.60;14.18;;;9.10;99.90;;;;;;5069783;28;20024;-73
2022/10/13 00:12:46;;;;;;;23.33;14.10;;;9.10;99.90;;;;;;5071123;28;20051;-72
2022/10/13 00:15:12;;;;;;;20.08;13.02;;;9.10;99.90;;;;;;5060705;28;20484;-73
2022/10/13 00:17:38;;;;;;;16.65;12.32;;;9.10;99.90;;;;;;5059854;28;20040;-72
2022/10/13 00:20:05;;;;;;;23.35;15.05;;;9.10;99.90;;;;;;5068851;28;21612;-73
2022/10/13 00:22:31;;;;;;;26.75;16.58;;;9.10;99.90;;;;;;5072324;28;20035;-73
2022/10/13 00:24:57;;;;;;;26.15;17.08;;;9.10;99.90;;;;;;5065908;28;20548;-73
2022/10/13 00:27:23;;;;;;;26.42;17.92;;;9.00;99.90;;;;;;5062338;28;20157;-72
2022/10/13 00:29:49;;;;;;;26.98;17.52;;;9.00;99.90;;;;;;5073772;28;20581;-73
2022/10/13 00:32:14;;;;;;;26.23;17.73;;;9.00;99.90;;;;;;5066872;28;20032;-73
2022/10/13 00:34:40;;;;;;;32.15;20.00;;;8.90;99.90;;;;;;5043260;28;20037;-73
2022/10/13 00:37:06;;;;;;;37.75;22.23;;;8.80;99.90;;;;;;5035607;28;20033;-73
2022/10/13 00:39:32;;;;;;;29.23;21.35;;;8.80;99.90;;;;;;5026384;28;20029;-73
2022/10/13 00:41:58;;;;;;;31.23;21.10;;;8.70;99.90;;;;;;5032710;28;20025;-73
2022/10/13 00:45:01;;;;;;;31.45;22.65;;;8.60;99.90;;;;;;5030738;28;20032;-73
2022/10/13 00:47:39;;;;;;;31.60;22.55;;;8.60;99.90;;;;;;5040725;28;20136;-73
2022/10/13 00:50:09;;;;;;;35.10;23.17;;;8.60;99.90;;;;;;5036693;28;20033;-73
2022/10/13 00:52:36;;;;;;;33.03;23.27;;;8.50;99.90;;;;;;5028211;28;20743;-73
2022/10/13 00:55:04;;;;;;;30.35;21.27;;;8.50;99.90;;;;;;5028728;28;20029;-73
2022/10/13 00:57:31;;;;;;;25.75;18.83;;;8.40;99.90;;;;;;5036186;28;20061;-73
2022/10/13 00:59:57;;;;;;;25.70;18.35;;;8.30;99.90;;;;;;5030142;28;20022;-73
2022/10/13 01:02:30;;;;;;;25.08;17.02;;;8.30;99.90;;;;;;5032197;28;20401;-72
2022/10/13 01:04:56;;;;;;;21.65;16.65;;;8.30;99.90;;;;;;5029686;28;20025;-72
2022/10/13 01:07:22;;;;;;;22.80;15.07;;;8.30;99.90;;;;;;5033099;28;20121;-72
2022/10/13 01:09:48;;;;;;;20.63;15.38;;;8.30;99.90;;;;;;5032729;28;20181;-72
2022/10/13 01:12:25;;;;;;;19.42;14.20;;;8.30;99.90;;;;;;5031282;28;20382;-72
2022/10/13 01:15:27;;;;;;;19.83;14.32;;;8.30;99.90;;;;;;5026138;28;20374;-73
2022/10/13 01:18:17;;;;;;;23.15;14.68;;;8.30;99.90;;;;;;5036672;28;20432;-73
2022/10/13 01:21:01;;;;;;;21.13;15.52;;;8.30;99.90;;;;;;5027131;28;20436;-72
2022/10/13 01:24:05;;;;;;;20.98;14.30;;;8.30;99.90;;;;;;5026046;28;20596;-72
2022/10/13 01:27:02;;;;;;;22.05;14.65;;;8.30;99.90;;;;;;5031432;28;20040;-73
2022/10/13 01:30:04;;;;;;;21.08;15.20;;;8.20;99.90;;;;;;5026042;28;20425;-73
2022/10/13 01:32:53;;;;;;;21.25;14.25;;;8.30;99.90;;;;;;5039676;28;20036;-73
2022/10/13 01:35:30;;;;;;;22.30;14.90;;;8.30;99.90;;;;;;5026029;28;20029;-73
2022/10/13 01:38:13;;;;;;;21.73;14.60;;;8.30;99.90;;;;;;5031078;28;20025;-72
2022/10/13 01:41:10;;;;;;;19.40;14.38;;;8.30;99.90;;;;;;5030109;28;20298;-73
2022/10/13 01:43:42;;;;;;;20.38;14.40;;;8.30;99.90;;;;;;5025489;28;20116;-73
2022/10/13 01:46:23;;;;;;;19.10;13.95;;;8.30;99.90;;;;;;5033268;28;20030;-73
2022/10/13 01:48:52;;;;;;;19.92;13.90;;;8.30;99.90;;;;;;5032717;28;20039;-73
2022/10/13 01:51:20;;;;;;;25.05;15.32;;;8.30;99.90;;;;;;5035490;28;20116;-73
2022/10/13 01:53:47;;;;;;;23.05;14.18;;;8.30;99.90;;;;;;5035210;28;20036;-73
2022/10/13 01:56:14;;;;;;;18.63;13.57;;;8.30;99.90;;;;;;5026664;28;20029;-72
2022/10/13 01:58:40;;;;;;;20.25;14.52;;;8.30;99.90;;;;;;5029432;28;20025;-73
2022/10/13 02:01:35;;;;;;;27.65;17.35;;;8.30;99.90;;;;;;5039386;28;20025;-73
2022/10/13 02:04:08;;;;;;;27.23;18.40;;;8.30;99.90;;;;;;5023763;28;20097;-73
2022/10/13 02:06:53;;;;;;;29.50;18.80;;;8.30;99.90;;;;;;5016371;28;20025;-73
2022/10/13 02:09:40;;;;;;;28.00;18.63;;;8.30;99.90;;;;;;5020298;28;20160;-73
2022/10/13 02:12:13;;;;;;;23.00;16.35;;;8.30;99.90;;;;;;5025935;28;20059;-73
2022/10/13 02:14:42;;;;;;;26.40;16.73;;;8.30;99.90;;;;;;5015933;28;20175;-72
2022/10/13 02:17:08;;;;;;;23.27;16.58;;;8.30;99.90;;;;;;5016159;28;20037;-72
2022/10/13 02:19:36;;;;;;;25.98;17.15;;;8.30;99.90;;;;;;5026701;28;20025;-73
2022/10/13 02:22:03;;;;;;;35.92;18.85;;;8.30;99.90;;;;;;5040870;28;20030;-72
2022/10/13 02:24:28;;;;;;;30.52;19.83;;;8.30;99.90;;;;;;5022326;28;20336;-72
2022/10/13 02:26:55;;;;;;;27.33;17.80;;;8.30;99.90;;;;;;5026402;28;20048;-73
2022/10/13 02:29:21;;;;;;;33.97;20.35;;;8.30;99.90;;;;;;5026288;28;20045;-73
2022/10/13 02:31:46;;;;;;;37.03;20.98;;;8.30;99.90;;;;;;5031113;28;20032;-73
2022/10/13 02:34:13;;;;;;;35.58;21.50;;;8.30;99.90;;;;;;5031687;28;20381;-73
2022/10/13 02:36:39;;;;;;;34.35;21.52;;;8.30;99.90;;;;;;5030043;28;20025;-73
2022/10/13 02:39:09;;;;;;;44.08;23.90;;;8.30;99.90;;;;;;5035185;28;20116;-73
2022/10/13 02:41:35;;;;;;;37.03;22.10;;;8.30;99.90;;;;;;5026521;28;20022;-73
2022/10/13 02:44:01;;;;;;;39.42;22.85;;;8.30;99.90;;;;;;5019749;28;20470;-73
2022/10/13 02:46:26;;;;;;;41.25;23.05;;;8.20;99.90;;;;;;5023376;28;20108;-73
2022/10/13 02:48:52;;;;;;;37.83;22.38;;;8.20;99.90;;;;;;5017535;28;20494;-73
2022/10/13 02:51:17;;;;;;;31.73;21.35;;;8.20;99.90;;;;;;5017499;28;20033;-73
2022/10/13 02:53:43;;;;;;;31.85;20.70;;;8.20;99.90;;;;;;5026151;28;20057;-73
2022/10/13 02:56:09;;;;;;;30.15;20.02;;;8.10;99.90;;;;;;5031509;28;20017;-73
2022/10/13 02:58:34;;;;;;;31.58;21.30;;;8.00;99.90;;;;;;5025444;28;20026;-73
2022/10/13 03:01:13;;;;;;;29.60;20.55;;;8.00;99.90;;;;;;5017827;28;20026;-73
2022/10/13 03:03:39;;;;;;;34.08;21.15;;;8.00;99.90;;;;;;5016419;28;20040;-73
2022/10/13 03:06:05;;;;;;;40.17;21.48;;;8.00;99.90;;;;;;5012765;28;20017;-73
2022/10/13 03:08:33;;;;;;;34.50;21.75;;;8.00;99.90;;;;;;5031411;28;20104;-73
2022/10/13 03:10:59;;;;;;;33.70;20.98;;;8.00;99.90;;;;;;5018380;28;20349;-73
2022/10/13 03:13:25;;;;;;;32.78;21.13;;;8.00;99.90;;;;;;5019238;28;20022;-73
2022/10/13 03:15:51;;;;;;;30.25;21.58;;;8.00;99.90;;;;;;5024995;28;20078;-73
2022/10/13 03:18:16;;;;;;;36.20;23.13;;;8.00;99.90;;;;;;5021545;28;20033;-73
2022/10/13 03:20:42;;;;;;;79.30;24.20;;;8.00;99.90;;;;;;5017647;28;20583;-73
2022/10/13 03:23:08;;;;;;;59.60;23.17;;;8.00;99.90;;;;;;5023532;28;20022;-73
2022/10/13 03:25:34;;;;;;;62.08;24.63;;;8.10;99.90;;;;;;5018770;28;20501;-73
2022/10/13 03:28:00;;;;;;;68.32;24.52;;;8.10;99.90;;;;;;5020825;28;20025;-73
2022/10/13 03:30:26;;;;;;;97.63;23.60;;;8.10;99.90;;;;;;5022596;28;20091;-73
2022/10/13 03:32:52;;;;;;;123.55;22.63;;;8.10;99.90;;;;;;5022330;28;20029;-72
2022/10/13 03:35:17;;;;;;;31.27;20.73;;;8.10;99.90;;;;;;5027949;28;20021;-72
2022/10/13 03:37:43;;;;;;;29.02;20.10;;;8.10;99.90;;;;;;5035223;28;20053;-73
2022/10/13 03:40:09;;;;;;;58.08;21.20;;;8.10;99.90;;;;;;5024157;28;20017;-73
2022/10/13 03:42:36;;;;;;;41.63;20.88;;;8.10;99.90;;;;;;5016728;28;20033;-73
2022/10/13 03:45:03;;;;;;;30.70;19.80;;;8.10;99.90;;;;;;5027454;28;20026;-73
2022/10/13 03:47:29;;;;;;;30.50;21.77;;;8.10;99.90;;;;;;5014632;28;20033;-73
2022/10/13 03:49:55;;;;;;;37.80;21.33;;;8.00;99.90;;;;;;5017803;28;20018;-73
2022/10/13 03:52:21;;;;;;;34.65;21.65;;;8.00;99.90;;;;;;5023258;28;20120;-73
2022/10/13 03:54:47;;;;;;;27.77;20.17;;;8.00;99.90;;;;;;5010758;28;20652;-73
2022/10/13 03:57:12;;;;;;;45.22;21.08;;;8.10;99.90;;;;;;5009324;28;20762;-73
2022/10/13 03:59:40;;;;;;;37.95;20.98;;;8.10;99.90;;;;;;5019328;28;20025;-73
2022/10/13 04:02:06;;;;;;;50.35;21.30;;;8.10;99.90;;;;;;5021317;28;20040;-73
2022/10/13 04:04:32;;;;;;;38.60;22.30;;;8.00;99.90;;;;;;5018441;28;20028;-73
2022/10/13 04:06:57;;;;;;;34.92;22.25;;;8.00;99.90;;;;;;5011648;28;20046;-73
2022/10/13 04:09:23;;;;;;;31.45;21.05;;;8.00;99.90;;;;;;5014640;28;20038;-73
2022/10/13 04:11:51;;;;;;;32.13;20.65;;;8.10;99.90;;;;;;5015763;28;20036;-74
2022/10/13 04:14:18;;;;;;;37.85;21.13;;;8.10;99.90;;;;;;5015302;28;20036;-73
2022/10/13 04:16:44;;;;;;;36.25;21.20;;;8.10;99.90;;;;;;5022890;28;20439;-73
2022/10/13 04:19:12;;;;;;;29.50;19.55;;;8.20;99.90;;;;;;5018942;28;20025;-74
2022/10/13 04:21:38;;;;;;;30.67;19.13;;;8.20;99.90;;;;;;5025700;28;20036;-73
2022/10/13 04:24:05;;;;;;;30.52;20.60;;;8.20;99.90;;;;;;5020975;28;21144;-73
2022/10/13 04:26:33;;;;;;;39.45;22.50;;;8.20;99.90;;;;;;5022274;28;20447;-73
2022/10/13 04:29:02;;;;;;;38.70;22.30;;;8.20;99.90;;;;;;5030101;28;20049;-73
2022/10/13 04:31:29;;;;;;;39.78;23.42;;;8.30;99.90;;;;;;5021254;28;20413;-73
2022/10/13 04:33:55;;;;;;;44.60;23.58;;;8.30;99.90;;;;;;5011262;28;20067;-73
2022/10/13 04:36:21;;;;;;;58.17;23.65;;;8.30;99.90;;;;;;5016769;28;20053;-74
2022/10/13 04:38:47;;;;;;;58.92;23.55;;;8.30;99.90;;;;;;5027325;28;20458;-73
2022/10/13 04:41:15;;;;;;;49.97;23.23;;;8.30;99.90;;;;;;5017688;28;20033;-74
2022/10/13 04:43:41;;;;;;;47.40;23.40;;;8.30;99.90;;;;;;5007010;28;20063;-74
2022/10/13 04:46:14;;;;;;;51.92;22.83;;;8.30;99.90;;;;;;5021558;28;20055;-73
2022/10/13 04:48:40;;;;;;;;;;;8.30;99.90;;;;;;5025193;28;20029;-73
2022/10/13 04:51:09;;;;;;;39.25;21.02;;;8.30;99.90;;;;;;5030816;28;19970;-73
2022/10/13 04:53:35;;;;;;;61.63;23.30;;;8.30;99.90;;;;;;5026585;28;20018;-73
2022/10/13 04:56:04;;;;;;;53.38;22.65;;;8.20;99.90;;;;;;5033298;28;20024;-73
2022/10/13 04:58:30;;;;;;;41.35;22.02;;;8.20;99.90;;;;;;5036335;28;20041;-73
2022/10/13 05:00:56;;;;;;;41.65;21.77;;;8.20;99.90;;;;;;5028039;28;20017;-73
2022/10/13 05:03:23;;;;;;;64.55;22.63;;;8.20;99.90;;;;;;5027110;28;20025;-73
2022/10/13 05:05:49;;;;;;;49.13;21.98;;;8.20;99.90;;;;;;5026000;28;20029;-73
2022/10/13 05:08:14;;;;;;;85.57;23.92;;;8.10;99.90;;;;;;5027146;28;20029;-73
2022/10/13 05:10:40;;;;;;;52.05;23.13;;;8.20;99.90;;;;;;5031525;28;20065;-73
2022/10/13 05:13:06;;;;;;;74.82;23.73;;;8.10;99.90;;;;;;5026344;28;20021;-73
2022/10/13 05:15:31;;;;;;;43.08;22.33;;;8.10;99.90;;;;;;5022697;28;20034;-73
2022/10/13 05:17:58;;;;;;;50.47;22.30;;;8.10;99.90;;;;;;4361990;28;10001072;-72
2022/10/13 05:20:24;;;;;;;48.35;22.42;;;8.10;99.90;;;;;;5060599;28;20401;-72
2022/10/13 05:22:50;;;;;;;53.15;23.20;;;8.20;99.90;;;;;;5067096;28;20038;-73
2022/10/13 05:25:16;;;;;;;65.97;22.98;;;8.20;99.90;;;;;;5062745;28;20016;-72
2022/10/13 05:27:41;;;;;;;52.55;24.92;;;8.20;99.90;;;;;;5052946;28;20044;-72
2022/10/13 05:30:07;;;;;;;52.63;24.40;;;8.20;99.90;;;;;;5056005;28;20069;-73
2022/10/13 05:32:34;;;;;;;48.22;25.08;;;8.30;99.90;;;;;;5056570;28;20032;-73
2022/10/13 05:35:00;;;;;;;59.33;25.52;;;8.30;99.90;;;;;;5061353;28;20064;-73
2022/10/13 05:37:26;;;;;;;51.95;27.17;;;8.30;99.90;;;;;;5061534;28;20087;-74
2022/10/13 05:39:51;;;;;;;51.63;26.13;;;8.30;99.90;;;;;;5066516;28;20024;-73
2022/10/13 05:42:17;;;;;;;57.58;26.30;;;8.30;99.90;;;;;;5070475;28;20024;-73
2022/10/13 05:44:43;;;;;;;68.10;26.95;;;8.30;99.90;;;;;;5073113;28;20040;-74
2022/10/13 05:47:08;;;;;;;52.22;26.20;;;8.30;99.90;;;;;;5063291;28;20024;-74
2022/10/13 05:49:38;;;;;;;49.40;26.40;;;8.40;99.90;;;;;;5034865;28;20041;-74
2022/10/13 05:52:08;;;;;;;62.40;26.77;;;8.30;99.90;;;;;;5022217;28;20102;-73
2022/10/13 05:54:42;;;;;;;52.72;25.50;;;8.30;99.90;;;;;;5018631;28;20033;-73
2022/10/13 05:57:22;;;;;;;55.47;25.88;;;8.40;99.90;;;;;;5023933;28;20022;-73
2022/10/13 05:59:56;;;;;;;49.33;24.58;;;8.40;99.90;;;;;;5024046;28;20438;-72
2022/10/13 06:02:27;;;;;;;62.25;25.65;;;8.40;99.90;;;;;;5026168;28;20029;-73
2022/10/13 06:04:55;;;;;;;154.50;26.55;;;8.40;99.90;;;;;;5037301;28;20017;-73
2022/10/13 06:07:21;;;;;;;64.03;40.63;;;8.40;99.90;;;;;;5014149;28;20041;-72
2022/10/13 06:09:47;;;;;;;64.00;32.17;;;8.40;99.90;;;;;;5024440;28;20036;-73
2022/10/13 06:12:13;;;;;;;62.88;28.00;;;8.40;99.90;;;;;;5027432;28;20677;-72
2022/10/13 06:14:39;;;;;;;59.83;29.52;;;8.40;99.90;;;;;;5036269;28;20017;-73
2022/10/13 06:17:05;;;;;;;51.92;26.77;;;8.50;99.90;;;;;;5034861;28;20034;-73
2022/10/13 06:19:31;;;;;;;79.32;33.95;;;8.50;99.90;;;;;;5026058;28;20145;-73
2022/10/13 06:21:57;;;;;;;71.95;40.47;;;8.50;99.90;;;;;;5032979;28;20458;-73
2022/10/13 06:24:23;;;;;;;73.38;41.08;;;8.50;99.90;;;;;;5014543;28;20603;-73
2022/10/13 06:26:48;;;;;;;84.78;31.15;;;8.60;99.90;;;;;;4670196;28;10000161;-73
2022/10/13 06:29:14;;;;;;;69.90;29.70;;;8.60;99.90;;;;;;5027586;28;20037;-73
2022/10/13 06:31:40;;;;;;;76.82;28.38;;;8.70;99.90;;;;;;5025891;28;20406;-73
2022/10/13 06:34:06;;;;;;;57.55;26.55;;;8.70;99.90;;;;;;5025860;28;20025;-73
2022/10/13 06:36:31;;;;;;;108.70;29.42;;;8.70;99.90;;;;;;5039811;28;20087;-73
2022/10/13 06:38:57;;;;;;;53.85;25.63;;;8.80;99.90;;;;;;5035140;28;20075;-73
2022/10/13 06:41:23;;;;;;;65.40;28.35;;;8.70;99.90;;;;;;5034287;28;20164;-73
2022/10/13 06:43:48;;;;;;;77.50;30.90;;;8.80;99.90;;;;;;5033042;28;20017;-73
2022/10/13 06:46:14;;;;;;;79.25;38.30;;;8.80;99.90;;;;;;5035324;28;20111;-73
2022/10/13 06:48:40;;;;;;;86.72;35.38;;;8.80;99.90;;;;;;5036817;28;20079;-73
2022/10/13 06:51:08;;;;;;;98.85;44.53;;;8.80;99.90;;;;;;5033751;28;21554;-73
2022/10/13 06:53:34;;;;;;;102.00;36.33;;;8.80;99.90;;;;;;5041927;28;20444;-73
2022/10/13 06:56:02;;;;;;;73.70;34.33;;;8.90;99.90;;;;;;5036060;28;20032;-73
2022/10/13 06:58:28;;;;;;;102.00;39.60;;;8.90;99.90;;;;;;5028043;28;20057;-73
2022/10/13 07:00:54;;;;;;;93.05;42.60;;;8.90;99.90;;;;;;5029747;28;20150;-74
2022/10/13 07:03:19;;;;;;;77.88;35.00;;;8.90;99.90;;;;;;5022848;28;20470;-73
2022/10/13 07:05:45;;;;;;;80.70;31.67;;;8.90;99.90;;;;;;5025799;28;20057;-73
2022/10/13 07:08:11;;;;;;;83.80;39.42;;;9.00;99.90;;;;;;5032412;28;20032;-73
2022/10/13 07:10:38;;;;;;;83.28;34.72;;;9.00;99.90;;;;;;5030848;28;20033;-74
2022/10/13 07:13:04;;;;;;;82.72;38.00;;;9.00;99.90;;;;;;5031703;28;20025;-73
2022/10/13 07:15:30;;;;;;;95.72;40.97;;;9.00;99.90;;;;;;5022832;28;20021;-73
2022/10/13 07:17:56;;;;;;;108.28;47.88;;;9.00;99.90;;;;;;5034660;28;20033;-73
2022/10/13 07:20:22;;;;;;;97.07;43.88;;;9.00;99.90;;;;;;5026892;28;20445;-73
2022/10/13 07:22:48;;;;;;;97.65;40.58;;;9.10;99.90;;;;;;5034231;28;20025;-73
2022/10/13 07:25:15;;;;;;;89.35;33.55;;;9.10;99.90;;;;;;5028253;28;20021;-73
2022/10/13 07:27:41;;;;;;;66.43;30.42;;;9.10;99.90;;;;;;5036960;28;20043;-73
2022/10/13 07:30:11;;;;;;;68.30;26.15;;;9.20;99.90;;;;;;5040135;28;20527;-73
2022/10/13 07:32:37;;;;;;;65.43;25.92;;;9.20;99.90;;;;;;5037028;28;20047;-73
2022/10/13 07:35:04;;;;;;;86.85;26.90;;;9.20;99.90;;;;;;5028407;28;20033;-73
2022/10/13 07:37:30;;;;;;;72.35;26.60;;;9.20;99.90;;;;;;5025921;28;20036;-74
2022/10/13 07:39:55;;;;;;;69.45;27.85;;;9.20;99.90;;;;;;5030755;28;20034;-74
2022/10/13 07:42:21;;;;;;;79.68;27.38;;;9.20;99.90;;;;;;5025114;28;20497;-74
2022/10/13 07:44:47;;;;;;;82.68;25.42;;;9.20;99.90;;;;;;5026278;28;20064;-72
2022/10/13 07:47:12;;;;;;;73.88;26.38;;;9.30;99.90;;;;;;5028477;28;20650;-76
2022/10/13 07:49:38;;;;;;;78.90;26.25;;;9.30;99.90;;;;;;5025065;28;20417;-76
2022/10/13 07:52:04;;;;;;;73.68;29.42;;;9.20;99.90;;;;;;5025610;28;20029;-76
2022/10/13 07:54:30;;;;;;;68.85;27.17;;;9.30;99.90;;;;;;5023474;28;20060;-76
2022/10/13 07:56:55;;;;;;;71.05;27.15;;;9.30;99.90;;;;;;5034025;28;20094;-76
2022/10/13 07:59:21;;;;;;;82.18;27.67;;;9.30;99.90;;;;;;5039197;28;20309;-76
2022/10/13 08:01:47;;;;;;;89.07;29.85;;;9.40;99.90;;;;;;5042594;28;20030;-76
2022/10/13 08:04:13;;;;;;;75.75;29.38;;;9.40;99.90;;;;;;5029327;28;20381;-76
2022/10/13 08:06:38;;;;;;;68.07;28.33;;;9.40;99.90;;;;;;5024234;28;20040;-76
2022/10/13 08:09:04;;;;;;;68.50;28.00;;;9.50;99.90;;;;;;5026317;28;20025;-76
2022/10/13 08:11:30;;;;;;;78.88;32.88;;;9.60;99.90;;;;;;5027054;28;20036;-76
2022/10/13 08:13:59;;;;;;;76.68;32.05;;;9.60;99.90;;;;;;5028259;28;20338;-76
2022/10/13 08:16:27;;;;;;;76.60;28.73;;;9.60;99.90;;;;;;5043511;28;20397;-76
2022/10/13 08:18:52;;;;;;;70.32;27.65;;;9.70;99.90;;;;;;5048249;28;20032;-76
2022/10/13 08:21:21;;;;;;;65.15;26.58;;;9.70;99.90;;;;;;5033850;28;20017;-76
2022/10/13 08:23:47;;;;;;;69.50;26.92;;;9.70;99.90;;;;;;5031140;28;20053;-76
2022/10/13 08:26:21;;;;;;;70.15;26.85;;;9.70;99.90;;;;;;5027818;28;20030;-76
2022/10/13 08:28:46;;;;;;;72.53;28.42;;;9.80;99.90;;;;;;5029493;28;20056;-75
2022/10/13 08:31:12;;;;;;;80.47;31.10;;;9.80;99.90;;;;;;5029775;28;20158;-75
2022/10/13 08:33:38;;;;;;;76.88;31.73;;;9.80;99.90;;;;;;5028891;28;20389;-75
2022/10/13 08:36:04;;;;;;;72.22;29.20;;;9.90;99.90;;;;;;5028970;28;20034;-75
2022/10/13 08:38:29;;;;;;;76.72;29.40;;;9.90;99.90;;;;;;5029287;28;20044;-75
2022/10/13 08:40:55;;;;;;;76.97;30.75;;;9.90;99.90;;;;;;5028740;28;20033;-76
2022/10/13 08:43:23;;;;;;;61.90;26.98;;;10.00;99.90;;;;;;5028332;28;20504;-75
2022/10/13 08:45:58;;;;;;;71.07;28.77;;;10.00;99.90;;;;;;5037791;28;20028;-76
2022/10/13 08:48:34;;;;;;;72.07;28.85;;;10.10;99.90;;;;;;5043881;28;20050;-75
2022/10/13 08:51:05;;;;;;;62.88;28.25;;;10.20;99.90;;;;;;5042103;28;20179;-76
2022/10/13 08:53:35;;;;;;;74.18;30.35;;;10.30;99.90;;;;;;5029850;28;20231;-76
2022/10/13 08:56:13;;;;;;;69.22;29.63;;;10.40;99.90;;;;;;5028850;28;20033;-76
2022/10/13 08:58:41;;;;;;;63.10;27.92;;;10.40;99.90;;;;;;5030612;28;20040;-76
2022/10/13 09:01:17;;;;;;;61.17;26.85;;;10.50;99.90;;;;;;5044236;28;20018;-76
2022/10/13 09:03:53;;;;;;;57.17;26.70;;;10.50;99.90;;;;;;5036461;28;20080;-76
2022/10/13 09:06:27;;;;;;;56.63;27.17;;;10.50;99.90;;;;;;5031836;28;20025;-76
2022/10/13 09:08:56;;;;;;;56.97;26.35;;;10.50;99.90;;;;;;5048489;28;20116;-76
2022/10/13 09:11:25;;;;;;;53.85;26.02;;;10.50;99.90;;;;;;5042104;28;20029;-76
2022/10/13 09:13:54;;;;;;;51.50;27.13;;;10.50;99.90;;;;;;5030491;28;20382;-76
2022/10/13 09:16:28;;;;;;;53.35;29.63;;;10.50;99.90;;;;;;5028487;28;20025;-76
2022/10/13 09:18:54;;;;;;;58.83;26.85;;;10.50;99.90;;;;;;5032747;28;20489;-76
2022/10/13 09:21:24;;;;;;;57.40;29.85;;;10.50;99.90;;;;;;5037774;28;20041;-76
2022/10/13 09:23:52;;;;;;;57.75;27.92;;;10.50;99.90;;;;;;5040253;28;20018;-76
2022/10/13 09:26:22;;;;;;;55.97;29.38;;;10.50;99.90;;;;;;5029541;28;20034;-76
2022/10/13 09:28:48;;;;;;;53.88;26.63;;;10.60;99.90;;;;;;5036335;28;20128;-76
2022/10/13 09:31:23;;;;;;;55.97;28.13;;;10.70;99.90;;;;;;5028216;28;20025;-76
2022/10/13 09:34:17;;;;;;;52.00;27.15;;;10.80;99.90;;;;;;5042175;28;20329;-76
2022/10/13 09:37:04;;;;;;;50.53;26.60;;;10.90;99.90;;;;;;5026210;28;20048;-76
2022/10/13 09:39:32;;;;;;;51.88;26.80;;;10.90;99.90;;;;;;5028319;28;20025;-76
2022/10/13 09:42:18;;;;;;;54.03;28.13;;;11.00;99.90;;;;;;5028081;28;20041;-76
2022/10/13 09:44:44;;;;;;;62.97;33.63;;;11.00;99.90;;;;;;5031521;28;20178;-76
2022/10/13 09:47:20;;;;;;;58.13;30.27;;;11.10;99.90;;;;;;5029552;28;20040;-75
2022/10/13 09:50:01;;;;;;;54.17;30.50;;;11.10;99.90;;;;;;5045553;28;20021;-75
2022/10/13 09:52:27;;;;;;;47.63;26.40;;;11.10;99.90;;;;;;5035307;28;20036;-76
2022/10/13 09:54:59;;;;;;;53.03;28.55;;;11.20;99.90;;;;;;5026427;28;20029;-76
2022/10/13 09:57:47;;;;;;;55.88;27.70;;;11.20;99.90;;;;;;5035029;28;20044;-75
2022/10/13 10:00:20;;;;;;;50.65;26.50;;;11.20;99.90;;;;;;5026501;28;20025;-75
2022/10/13 10:02:52;;;;;;;48.75;26.95;;;11.20;99.90;;;;;;5026895;28;20025;-75
2022/10/13 10:05:27;;;;;;;55.85;32.22;;;11.30;99.90;;;;;;5024376;28;20056;-76
2022/10/13 10:07:59;;;;;;;62.28;32.90;;;11.50;99.90;;;;;;5026627;28;20104;-76
2022/10/13 10:10:32;;;;;;;50.45;27.23;;;11.60;99.90;;;;;;5028701;28;20025;-76
2022/10/13 10:13:00;;;;;;;50.33;29.38;;;11.80;99.90;;;;;;5027769;28;20351;-75
2022/10/13 10:15:38;;;;;;;48.85;27.30;;;12.00;99.90;;;;;;5025542;28;20067;-76
2022/10/13 10:18:29;;;;;;;48.72;25.95;;;12.20;99.90;;;;;;5042148;28;20033;-76
2022/10/13 10:21:01;;;;;;;47.50;26.55;;;12.30;99.90;;;;;;5042574;28;20024;-76
2022/10/13 10:23:30;;;;;;;48.63;25.27;;;12.40;99.90;;;;;;5041686;28;20035;-76
2022/10/13 10:26:05;;;;;;;46.13;25.33;;;12.40;99.90;;;;;;5033886;28;20501;-76
2022/10/13 10:28:42;;;;;;;42.58;24.25;;;12.50;99.90;;;;;;5041880;28;20049;-76
2022/10/13 10:31:39;;;;;;;43.88;24.15;;;12.50;99.90;;;;;;5027129;28;20041;-76
2022/10/13 10:34:29;;;;;;;42.72;24.02;;;12.50;99.90;;;;;;5023024;28;20037;-76
2022/10/13 10:37:17;;;;;;;40.53;23.92;;;12.60;99.90;;;;;;5027538;28;20033;-76
2022/10/13 10:39:47;;;;;;;40.08;22.52;;;12.70;99.90;;;;;;5027002;28;20071;-76
2022/10/13 10:42:18;;;;;;;41.03;23.17;;;12.80;99.90;;;;;;5024258;28;20366;-76
2022/10/13 10:44:47;;;;;;;39.20;22.05;;;12.80;99.90;;;;;;5026431;28;20026;-76
2022/10/13 10:47:23;;;;;;;42.05;23.02;;;12.90;99.90;;;;;;5028343;28;20397;-76
2022/10/13 10:49:55;;;;;;;38.78;23.27;;;12.90;99.90;;;;;;5046803;28;20028;-76
2022/10/13 10:52:35;;;;;;;39.70;22.65;;;12.90;99.90;;;;;;5040034;28;20040;-76
2022/10/13 10:55:16;;;;;;;44.35;23.95;;;13.00;99.90;;;;;;5040914;28;20056;-76
2022/10/13 10:58:00;;;;;;;41.08;22.35;;;13.00;99.90;;;;;;5032072;28;20026;-76
2022/10/13 11:00:26;;;;;;;40.58;22.85;;;13.10;99.90;;;;;;5031703;28;20036;-76
2022/10/13 11:03:20;;;;;;;36.42;22.08;;;13.20;99.90;;;;;;5029979;28;20029;-76
2022/10/13 11:06:02;;;;;;;36.97;20.73;;;13.20;99.90;;;;;;5026489;28;20041;-75
2022/10/13 11:08:29;;;;;;;32.80;19.30;;;13.30;99.90;;;;;;5031310;28;20469;-76
2022/10/13 11:11:24;;;;;;;31.83;19.08;;;13.50;99.90;;;;;;5044660;28;20133;-75
2022/10/13 11:13:51;;;;;;;33.08;19.45;;;13.60;99.90;;;;;;5034452;28;20034;-75
2022/10/13 11:16:35;;;;;;;35.03;20.58;;;13.70;99.90;;;;;;5030305;28;20079;-76
2022/10/13 11:19:04;;;;;;;30.15;18.77;;;13.70;99.90;;;;;;5033512;28;20041;-76
2022/10/13 11:21:58;;;;;;;30.95;18.08;;;14.00;99.90;;;;;;5026578;28;20026;-76
2022/10/13 11:24:32;;;;;;;29.08;18.05;;;14.40;99.90;;;;;;5024560;28;20032;-76
2022/10/13 11:27:08;;;;;;;30.25;18.40;;;14.60;99.90;;;;;;5024241;28;20579;-76
2022/10/13 11:29:45;;;;;;;28.17;17.45;;;14.90;99.90;;;;;;5030795;28;20421;-76
2022/10/13 11:32:40;;;;;;;28.15;16.83;;;;;;;;;;5033178;28;20032;-76
2022/10/13 11:35:05;;;;;;;28.10;17.55;;;15.50;99.90;;;;;;5041375;28;20028;-76
2022/10/13 11:37:37;;;;;;;33.33;17.98;;;15.60;99.90;;;;;;5045728;28;20262;-76
2022/10/13 11:40:14;;;;;;;26.67;17.15;;;15.50;99.90;;;;;;5039169;28;20056;-76
2022/10/13 11:43:18;;;;;;;31.63;17.95;;;15.40;99.90;;;;;;5025206;28;20030;-76
2022/10/13 11:46:05;;;;;;;30.23;18.25;;;15.40;99.90;;;;;;5038895;28;20051;-76
2022/10/13 11:48:52;;;;;;;32.08;17.50;;;15.20;99.90;;;;;;5029021;28;20562;-76
2022/10/13 11:52:01;;;;;;;34.08;17.63;;;15.20;99.90;;;;;;5030775;28;20067;-76
2022/10/13 11:54:54;;;;;;;27.00;16.77;;;15.10;99.90;;;;;;5040814;28;20525;-76
2022/10/13 11:57:25;;;;;;;28.38;14.82;;;14.90;99.90;;;;;;5030600;28;20042;-76
2022/10/13 11:59:54;;;;;;;32.40;20.75;;;14.90;99.90;;;;;;5038349;28;20025;-76
2022/10/13 12:02:24;;;;;;;32.78;20.35;;;14.70;99.90;;;;;;5040804;28;20017;-76
2022/10/13 12:05:05;;;;;;;33.60;20.63;;;14.60;99.90;;;;;;5028357;28;20017;-76
2022/10/13 12:07:36;;;;;;;33.17;20.05;;;14.50;99.90;;;;;;5033316;28;20030;-75
2022/10/13 12:10:06;;;;;;;27.77;17.25;;;14.40;99.90;;;;;;5036430;28;20090;-76
2022/10/13 12:12:33;;;;;;;28.70;17.75;;;14.30;99.90;;;;;;5037667;28;20440;-76
2022/10/13 12:14:58;;;;;;;23.33;15.48;;;14.30;99.90;;;;;;5028342;28;20025;-75
2022/10/13 12:17:31;;;;;;;27.80;17.73;;;14.20;99.90;;;;;;5037109;28;20037;-76
2022/10/13 12:20:00;;;;;;;27.90;16.85;;;14.20;99.90;;;;;;5029795;28;20214;-76
2022/10/13 12:22:26;;;;;;;25.40;15.43;;;14.30;99.90;;;;;;5043341;28;20220;-76
2022/10/13 12:25:04;;;;;;;25.17;15.55;;;14.40;99.90;;;;;;5029180;28;20037;-76
2022/10/13 12:27:46;;;;;;;20.73;14.18;;;14.50;99.90;;;;;;5043914;28;20086;-76
2022/10/13 12:30:30;;;;;;;25.23;13.82;;;14.70;99.90;;;;;;5029690;28;20349;-76
2022/10/13 12:32:58;;;;;;;22.55;14.27;;;14.80;99.90;;;;;;5029797;28;20033;-76
2022/10/13 12:35:32;;;;;;;26.20;14.52;;;14.80;99.90;;;;;;5040447;28;20075;-76
2022/10/13 12:38:04;;;;;;;29.08;15.25;;;14.80;99.90;;;;;;5029345;28;20357;-76
2022/10/13 12:40:30;;;;;;;31.85;15.88;;;14.80;99.90;;;;;;5030990;28;20491;-76
2022/10/13 12:42:56;;;;;;;25.80;15.43;;;14.70;99.90;;;;;;5033087;28;20026;-76
2022/10/13 12:45:26;;;;;;;27.98;15.55;;;14.70;99.90;;;;;;5028101;28;20031;-76
2022/10/13 12:47:53;;;;;;;24.98;14.38;;;14.60;99.90;;;;;;5031096;28;20385;-76
2022/10/13 12:50:20;;;;;;;27.40;14.40;;;14.60;99.90;;;;;;5040099;28;20022;-76